sensor_id;sensor_type;location;lat;lon;timestamp;pressure;altitude;pressure_sealevel;temperature;humidity
85764;BME280;76207;39.772;2.706;2024-03-23T00:53:35;101555.79;;;15.50;65.92
85764;BME280;76207;39.772;2.706;2024-03-23T00:56:02;101550.58;;;15.49;65.96
85764;BME280;76207;39.772;2.706;2024-03-23T00:58:28;101548.38;;;15.50;66.03
85764;BME280;76207;39.772;2.706;2024-03-23T01:00:54;101547.44;;;15.49;65.77
85764;BME280;76207;39.772;2.706;2024-03-23T01:03:19;101552.23;;;15.48;65.81
85764;BME280;76207;39.772;2.706;2024-03-23T01:05:44;101552.04;;;15.47;65.59
85764;BME280;76207;39.772;2.706;2024-03-23T01:08:10;101554.79;;;15.47;65.55
85764;BME280;76207;39.772;2.706;2024-03-23T01:10:35;101552.20;;;15.47;65.52
85764;BME280;76207;39.772;2.706;2024-03-23T01:13:01;101554.02;;;15.45;65.42
85764;BME280;76207;39.772;2.706;2024-03-23T01:15:26;101551.38;;;15.44;65.43
85764;BME280;76207;39.772;2.706;2024-03-23T01:17:52;101552.08;;;15.40;65.45
85764;BME280;76207;39.772;2.706;2024-03-23T01:20:17;101556.41;;;15.37;65.60
85764;BME280;76207;39.772;2.706;2024-03-23T01:22:43;101553.45;;;15.37;65.73
85764;BME280;76207;39.772;2.706;2024-03-23T01:25:08;101552.61;;;15.37;65.58
85764;BME280;76207;39.772;2.706;2024-03-23T01:27:34;101549.80;;;15.36;65.61
85764;BME280;76207;39.772;2.706;2024-03-23T01:30:00;101551.09;;;15.34;65.37
85764;BME280;76207;39.772;2.706;2024-03-23T01:32:25;101545.22;;;15.34;65.50
85764;BME280;76207;39.772;2.706;2024-03-23T01:34:51;101542.09;;;15.33;65.36
85764;BME280;76207;39.772;2.706;2024-03-23T01:37:16;101536.36;;;15.32;65.42
85764;BME280;76207;39.772;2.706;2024-03-23T01:39:42;101530.72;;;15.30;65.40
85764;BME280;76207;39.772;2.706;2024-03-23T01:42:07;101524.17;;;15.26;65.51
85764;BME280;76207;39.772;2.706;2024-03-23T01:44:32;101513.73;;;15.23;65.51
85764;BME280;76207;39.772;2.706;2024-03-23T01:46:58;101508.76;;;15.20;65.36
85764;BME280;76207;39.772;2.706;2024-03-23T01:49:24;101501.87;;;15.17;65.42
85764;BME280;76207;39.772;2.706;2024-03-23T01:51:50;101499.80;;;15.13;65.57
85764;BME280;76207;39.772;2.706;2024-03-23T01:54:15;101498.39;;;15.08;65.72
85764;BME280;76207;39.772;2.706;2024-03-23T01:56:41;101494.17;;;15.02;65.94
85764;BME280;76207;39.772;2.706;2024-03-23T01:59:07;101495.08;;;15.00;65.74
85764;BME280;76207;39.772;2.706;2024-03-23T02:01:35;101498.30;;;14.98;65.97
85764;BME280;76207;39.772;2.706;2024-03-23T02:04:03;101494.45;;;14.97;66.08
85764;BME280;76207;39.772;2.706;2024-03-23T02:06:29;101495.30;;;14.97;66.40
85764;BME280;76207;39.772;2.706;2024-03-23T02:08:55;101502.98;;;14.96;66.42
85764;BME280;76207;39.772;2.706;2024-03-23T02:11:21;101498.34;;;14.92;66.51
85764;BME280;76207;39.772;2.706;2024-03-23T02:13:46;101500.54;;;14.87;66.67
85764;BME280;76207;39.772;2.706;2024-03-23T02:16:12;101501.77;;;14.84;66.90
85764;BME280;76207;39.772;2.706;2024-03-23T02:18:38;101506.59;;;14.84;66.81
85764;BME280;76207;39.772;2.706;2024-03-23T02:21:04;101507.21;;;14.86;66.68
85764;BME280;76207;39.772;2.706;2024-03-23T02:23:30;101504.34;;;14.88;66.99
85764;BME280;76207;39.772;2.706;2024-03-23T02:25:56;101505.89;;;14.87;67.01
85764;BME280;76207;39.772;2.706;2024-03-23T02:28:21;101505.66;;;14.86;66.93
85764;BME280;76207;39.772;2.706;2024-03-23T02:30:50;101509.33;;;14.84;66.65
85764;BME280;76207;39.772;2.706;2024-03-23T02:33:16;101503.23;;;14.82;66.52
85764;BME280;76207;39.772;2.706;2024-03-23T02:35:45;101500.52;;;14.79;66.71
85764;BME280;76207;39.772;2.706;2024-03-23T02:38:10;101495.65;;;14.75;66.75
85764;BME280;76207;39.772;2.706;2024-03-23T02:40:36;101496.55;;;14.72;66.75
85764;BME280;76207;39.772;2.706;2024-03-23T02:43:04;101498.91;;;14.71;66.79
85764;BME280;76207;39.772;2.706;2024-03-23T02:45:30;101503.92;;;14.72;66.74
85764;BME280;76207;39.772;2.706;2024-03-23T02:47:56;101505.80;;;14.71;66.88
85764;BME280;76207;39.772;2.706;2024-03-23T02:50:22;101509.80;;;14.69;66.94
85764;BME280;76207;39.772;2.706;2024-03-23T02:52:47;101506.73;;;14.65;66.76
85764;BME280;76207;39.772;2.706;2024-03-23T02:55:14;101506.80;;;14.63;66.96
85764;BME280;76207;39.772;2.706;2024-03-23T02:57:40;101508.94;;;14.57;67.05
85764;BME280;76207;39.772;2.706;2024-03-23T03:00:06;101509.09;;;14.53;67.21
85764;BME280;76207;39.772;2.706;2024-03-23T03:02:33;101510.86;;;14.51;67.25
85764;BME280;76207;39.772;2.706;2024-03-23T03:04:59;101514.36;;;14.52;67.50
85764;BME280;76207;39.772;2.706;2024-03-23T03:07:24;101517.83;;;14.52;67.18
85764;BME280;76207;39.772;2.706;2024-03-23T03:09:50;101521.70;;;14.54;67.46
85764;BME280;76207;39.772;2.706;2024-03-23T03:12:16;101526.52;;;14.54;67.47
85764;BME280;76207;39.772;2.706;2024-03-23T03:14:41;101531.97;;;14.53;67.34
85764;BME280;76207;39.772;2.706;2024-03-23T03:17:07;101537.36;;;14.50;66.92
85764;BME280;76207;39.772;2.706;2024-03-23T03:19:33;101545.48;;;14.48;66.74
85764;BME280;76207;39.772;2.706;2024-03-23T03:21:58;101549.45;;;14.45;66.67
85764;BME280;76207;39.772;2.706;2024-03-23T03:24:24;101555.86;;;14.42;66.92
85764;BME280;76207;39.772;2.706;2024-03-23T03:26:49;101563.67;;;14.40;66.91
85764;BME280;76207;39.772;2.706;2024-03-23T03:29:15;101568.88;;;14.37;67.03
85764;BME280;76207;39.772;2.706;2024-03-23T03:31:42;101573.32;;;14.33;67.21
85764;BME280;76207;39.772;2.706;2024-03-23T03:34:08;101569.73;;;14.30;67.21
85764;BME280;76207;39.772;2.706;2024-03-23T03:36:34;101566.86;;;14.28;67.54
85764;BME280;76207;39.772;2.706;2024-03-23T03:38:59;101569.12;;;14.25;67.44
85764;BME280;76207;39.772;2.706;2024-03-23T03:41:25;101567.49;;;14.23;67.59
85764;BME280;76207;39.772;2.706;2024-03-23T03:43:51;101563.98;;;14.22;67.77
85764;BME280;76207;39.772;2.706;2024-03-23T03:46:16;101560.02;;;14.19;68.23
85764;BME280;76207;39.772;2.706;2024-03-23T03:48:42;101551.08;;;14.19;68.12
85764;BME280;76207;39.772;2.706;2024-03-23T03:51:10;101540.39;;;14.18;67.95
85764;BME280;76207;39.772;2.706;2024-03-23T03:53:36;101536.77;;;14.18;67.88
85764;BME280;76207;39.772;2.706;2024-03-23T03:56:01;101536.86;;;14.16;67.97
85764;BME280;76207;39.772;2.706;2024-03-23T03:58:27;101534.58;;;14.15;68.01
85764;BME280;76207;39.772;2.706;2024-03-23T04:00:53;101531.92;;;14.13;67.92
85764;BME280;76207;39.772;2.706;2024-03-23T04:03:19;101529.17;;;14.10;67.78
85764;BME280;76207;39.772;2.706;2024-03-23T04:05:55;101538.46;;;14.07;67.82
85764;BME280;76207;39.772;2.706;2024-03-23T04:08:21;101542.16;;;14.02;67.94
85764;BME280;76207;39.772;2.706;2024-03-23T04:10:47;101544.30;;;13.97;67.95
85764;BME280;76207;39.772;2.706;2024-03-23T04:13:13;101554.61;;;13.96;68.14
85764;BME280;76207;39.772;2.706;2024-03-23T04:15:39;101556.46;;;13.95;68.14
85764;BME280;76207;39.772;2.706;2024-03-23T04:18:05;101560.95;;;13.95;68.53
85764;BME280;76207;39.772;2.706;2024-03-23T04:20:31;101562.46;;;13.95;68.55
85764;BME280;76207;39.772;2.706;2024-03-23T04:22:58;101559.74;;;13.86;68.75
85764;BME280;76207;39.772;2.706;2024-03-23T04:25:24;101562.94;;;13.71;69.23
85764;BME280;76207;39.772;2.706;2024-03-23T04:27:49;101566.71;;;13.60;69.51
85764;BME280;76207;39.772;2.706;2024-03-23T04:30:15;101573.70;;;13.53;69.47
85764;BME280;76207;39.772;2.706;2024-03-23T04:32:41;101575.68;;;13.55;69.57
85764;BME280;76207;39.772;2.706;2024-03-23T04:35:07;101569.61;;;13.60;69.37
85764;BME280;76207;39.772;2.706;2024-03-23T04:37:39;101570.30;;;13.67;69.19
85764;BME280;76207;39.772;2.706;2024-03-23T04:40:08;101568.01;;;13.73;69.34
85764;BME280;76207;39.772;2.706;2024-03-23T04:42:34;101564.89;;;13.79;69.20
85764;BME280;76207;39.772;2.706;2024-03-23T04:45:00;101564.09;;;13.83;69.05
85764;BME280;76207;39.772;2.706;2024-03-23T04:47:26;101566.20;;;13.84;68.93
85764;BME280;76207;39.772;2.706;2024-03-23T04:49:51;101564.05;;;13.82;68.91
85764;BME280;76207;39.772;2.706;2024-03-23T04:52:17;101559.98;;;13.80;68.69
85764;BME280;76207;39.772;2.706;2024-03-23T04:54:43;101564.98;;;13.77;68.83
85764;BME280;76207;39.772;2.706;2024-03-23T04:57:09;101562.21;;;13.74;68.61
85764;BME280;76207;39.772;2.706;2024-03-23T04:59:34;101565.44;;;13.73;68.90
85764;BME280;76207;39.772;2.706;2024-03-23T05:02:00;101564.08;;;13.73;68.87
85764;BME280;76207;39.772;2.706;2024-03-23T05:04:26;101565.33;;;13.74;68.99
85764;BME280;76207;39.772;2.706;2024-03-23T05:06:52;101564.86;;;13.75;69.12
85764;BME280;76207;39.772;2.706;2024-03-23T05:09:17;101564.83;;;13.74;69.22
85764;BME280;76207;39.772;2.706;2024-03-23T05:11:43;101567.87;;;13.73;68.93
85764;BME280;76207;39.772;2.706;2024-03-23T05:14:08;101572.14;;;13.73;69.06
85764;BME280;76207;39.772;2.706;2024-03-23T05:16:34;101569.70;;;13.72;69.12
85764;BME280;76207;39.772;2.706;2024-03-23T05:19:00;101574.31;;;13.72;69.20
85764;BME280;76207;39.772;2.706;2024-03-23T05:21:26;101574.08;;;13.70;69.51
85764;BME280;76207;39.772;2.706;2024-03-23T05:23:54;101572.16;;;13.70;69.36
85764;BME280;76207;39.772;2.706;2024-03-23T05:26:20;101568.91;;;13.70;69.45
85764;BME280;76207;39.772;2.706;2024-03-23T05:28:45;101569.56;;;13.69;69.46
85764;BME280;76207;39.772;2.706;2024-03-23T05:31:11;101567.46;;;13.69;69.15
85764;BME280;76207;39.772;2.706;2024-03-23T05:33:37;101567.13;;;13.69;69.19
85764;BME280;76207;39.772;2.706;2024-03-23T05:36:05;101573.58;;;13.70;69.19
85764;BME280;76207;39.772;2.706;2024-03-23T05:38:31;101578.89;;;13.70;69.30
85764;BME280;76207;39.772;2.706;2024-03-23T05:40:57;101581.18;;;13.68;69.00
85764;BME280;76207;39.772;2.706;2024-03-23T05:43:24;101581.86;;;13.64;68.85
85764;BME280;76207;39.772;2.706;2024-03-23T05:46:00;101580.90;;;13.62;68.89
85764;BME280;76207;39.772;2.706;2024-03-23T05:48:30;101583.21;;;13.64;68.86
85764;BME280;76207;39.772;2.706;2024-03-23T05:50:56;101584.15;;;13.62;68.81
85764;BME280;76207;39.772;2.706;2024-03-23T05:53:22;101586.38;;;13.62;69.04
85764;BME280;76207;39.772;2.706;2024-03-23T05:55:49;101586.50;;;13.58;69.21
85764;BME280;76207;39.772;2.706;2024-03-23T05:58:16;101580.33;;;13.52;69.44
85764;BME280;76207;39.772;2.706;2024-03-23T06:00:42;101580.17;;;13.52;69.75
85764;BME280;76207;39.772;2.706;2024-03-23T06:03:09;101579.33;;;13.55;69.62
85764;BME280;76207;39.772;2.706;2024-03-23T06:05:35;101575.52;;;13.58;69.82
85764;BME280;76207;39.772;2.706;2024-03-23T06:08:02;101572.40;;;13.64;69.46
85764;BME280;76207;39.772;2.706;2024-03-23T06:10:28;101574.31;;;13.72;69.52
85764;BME280;76207;39.772;2.706;2024-03-23T06:12:53;101579.02;;;13.76;69.27
85764;BME280;76207;39.772;2.706;2024-03-23T06:15:19;101581.34;;;13.78;68.87
85764;BME280;76207;39.772;2.706;2024-03-23T06:17:45;101582.20;;;13.78;68.79
85764;BME280;76207;39.772;2.706;2024-03-23T06:20:10;101578.73;;;13.77;68.92
85764;BME280;76207;39.772;2.706;2024-03-23T06:22:36;101579.52;;;13.76;69.02
85764;BME280;76207;39.772;2.706;2024-03-23T06:25:02;101580.06;;;13.73;69.13
85764;BME280;76207;39.772;2.706;2024-03-23T06:27:28;101583.09;;;13.72;68.94
85764;BME280;76207;39.772;2.706;2024-03-23T06:29:54;101586.80;;;13.74;69.01
85764;BME280;76207;39.772;2.706;2024-03-23T06:32:20;101588.17;;;13.77;68.98
85764;BME280;76207;39.772;2.706;2024-03-23T06:34:45;101588.63;;;13.82;69.27
85764;BME280;76207;39.772;2.706;2024-03-23T06:37:11;101589.08;;;13.87;69.47
85764;BME280;76207;39.772;2.706;2024-03-23T06:39:37;101592.26;;;13.86;69.71
85764;BME280;76207;39.772;2.706;2024-03-23T06:42:03;101597.58;;;13.82;69.63
85764;BME280;76207;39.772;2.706;2024-03-23T06:44:29;101604.17;;;13.90;69.61
85764;BME280;76207;39.772;2.706;2024-03-23T06:46:55;101608.61;;;14.03;69.84
85764;BME280;76207;39.772;2.706;2024-03-23T06:49:22;101611.67;;;14.22;69.62
85764;BME280;76207;39.772;2.706;2024-03-23T06:51:47;101611.65;;;14.45;69.19
85764;BME280;76207;39.772;2.706;2024-03-23T06:54:19;101622.52;;;14.67;68.89
85764;BME280;76207;39.772;2.706;2024-03-23T06:56:44;101628.14;;;14.86;68.42
85764;BME280;76207;39.772;2.706;2024-03-23T06:59:10;101627.75;;;14.96;68.09
85764;BME280;76207;39.772;2.706;2024-03-23T07:01:36;101634.25;;;15.13;68.02
85764;BME280;76207;39.772;2.706;2024-03-23T07:04:02;101643.07;;;15.36;67.57
85764;BME280;76207;39.772;2.706;2024-03-23T07:06:27;101647.05;;;15.62;67.37
85764;BME280;76207;39.772;2.706;2024-03-23T07:08:53;101647.15;;;15.87;66.79
85764;BME280;76207;39.772;2.706;2024-03-23T07:11:22;101651.76;;;16.09;66.18
85764;BME280;76207;39.772;2.706;2024-03-23T07:13:52;101653.88;;;16.34;65.93
85764;BME280;76207;39.772;2.706;2024-03-23T07:16:19;101655.29;;;16.59;65.54
85764;BME280;76207;39.772;2.706;2024-03-23T07:18:45;101657.89;;;16.84;65.05
85764;BME280;76207;39.772;2.706;2024-03-23T07:21:10;101659.85;;;17.15;64.77
85764;BME280;76207;39.772;2.706;2024-03-23T07:23:36;101663.10;;;17.33;64.51
85764;BME280;76207;39.772;2.706;2024-03-23T07:26:02;101662.77;;;17.46;64.06
85764;BME280;76207;39.772;2.706;2024-03-23T07:28:28;101664.49;;;17.65;63.67
85764;BME280;76207;39.772;2.706;2024-03-23T07:31:08;101669.55;;;17.88;63.09
85764;BME280;76207;39.772;2.706;2024-03-23T07:33:35;101671.40;;;18.05;62.61
85764;BME280;76207;39.772;2.706;2024-03-23T07:36:01;101673.45;;;18.14;61.97
85764;BME280;76207;39.772;2.706;2024-03-23T07:38:28;101675.63;;;18.22;61.55
85764;BME280;76207;39.772;2.706;2024-03-23T07:41:11;101679.65;;;18.23;61.30
85764;BME280;76207;39.772;2.706;2024-03-23T07:43:38;101688.02;;;18.29;61.08
85764;BME280;76207;39.772;2.706;2024-03-23T07:46:04;101696.80;;;18.47;60.99
85764;BME280;76207;39.772;2.706;2024-03-23T07:48:30;101707.73;;;18.68;60.82
85764;BME280;76207;39.772;2.706;2024-03-23T07:51:07;101709.00;;;18.79;60.24
85764;BME280;76207;39.772;2.706;2024-03-23T07:53:34;101704.95;;;18.82;60.23
85764;BME280;76207;39.772;2.706;2024-03-23T07:56:01;101707.83;;;18.75;59.53
85764;BME280;76207;39.772;2.706;2024-03-23T07:58:27;101708.70;;;18.55;58.73
85764;BME280;76207;39.772;2.706;2024-03-23T08:00:54;101701.94;;;18.36;59.72
85764;BME280;76207;39.772;2.706;2024-03-23T08:03:20;101700.20;;;18.21;59.88
85764;BME280;76207;39.772;2.706;2024-03-23T08:05:46;101695.79;;;18.09;60.77
85764;BME280;76207;39.772;2.706;2024-03-23T08:08:12;101692.89;;;18.10;61.07
85764;BME280;76207;39.772;2.706;2024-03-23T08:10:50;101697.44;;;18.17;61.26
85764;BME280;76207;39.772;2.706;2024-03-23T08:13:16;101702.00;;;18.23;61.19
85764;BME280;76207;39.772;2.706;2024-03-23T08:15:42;101699.89;;;18.32;61.16
85764;BME280;76207;39.772;2.706;2024-03-23T08:18:07;101705.58;;;18.45;61.19
85764;BME280;76207;39.772;2.706;2024-03-23T08:20:33;101709.48;;;18.58;60.85
85764;BME280;76207;39.772;2.706;2024-03-23T08:22:59;101711.18;;;18.63;60.48
85764;BME280;76207;39.772;2.706;2024-03-23T08:25:24;101715.31;;;18.62;60.16
85764;BME280;76207;39.772;2.706;2024-03-23T08:27:50;101711.52;;;18.68;60.09
85764;BME280;76207;39.772;2.706;2024-03-23T08:30:15;101707.80;;;18.79;59.81
85764;BME280;76207;39.772;2.706;2024-03-23T08:32:41;101712.06;;;18.93;59.61
85764;BME280;76207;39.772;2.706;2024-03-23T08:35:11;101718.50;;;19.04;59.19
85764;BME280;76207;39.772;2.706;2024-03-23T08:37:36;101723.94;;;19.17;59.06
85764;BME280;76207;39.772;2.706;2024-03-23T08:40:02;101728.52;;;19.35;58.90
85764;BME280;76207;39.772;2.706;2024-03-23T08:42:30;101730.59;;;19.51;58.57
85764;BME280;76207;39.772;2.706;2024-03-23T08:44:55;101737.14;;;19.66;58.40
85764;BME280;76207;39.772;2.706;2024-03-23T08:47:21;101742.99;;;19.87;58.40
85764;BME280;76207;39.772;2.706;2024-03-23T08:49:46;101744.11;;;20.13;57.75
85764;BME280;76207;39.772;2.706;2024-03-23T08:52:12;101746.89;;;20.38;57.15
85764;BME280;76207;39.772;2.706;2024-03-23T08:54:37;101750.27;;;20.65;56.79
85764;BME280;76207;39.772;2.706;2024-03-23T08:57:03;101753.44;;;20.94;56.10
85764;BME280;76207;39.772;2.706;2024-03-23T08:59:29;101750.48;;;21.22;55.98
85764;BME280;76207;39.772;2.706;2024-03-23T09:01:54;101757.42;;;21.49;55.52
85764;BME280;76207;39.772;2.706;2024-03-23T09:04:20;101755.12;;;21.71;54.86
85764;BME280;76207;39.772;2.706;2024-03-23T09:06:46;101756.27;;;21.92;53.66
85764;BME280;76207;39.772;2.706;2024-03-23T09:09:12;101759.20;;;22.14;52.43
85764;BME280;76207;39.772;2.706;2024-03-23T09:11:38;101760.21;;;22.38;51.88
85764;BME280;76207;39.772;2.706;2024-03-23T09:14:03;101761.46;;;22.58;50.07
85764;BME280;76207;39.772;2.706;2024-03-23T09:16:29;101763.09;;;22.70;49.44
85764;BME280;76207;39.772;2.706;2024-03-23T09:18:54;101759.89;;;22.77;48.35
85764;BME280;76207;39.772;2.706;2024-03-23T09:21:20;101760.84;;;22.81;48.48
85764;BME280;76207;39.772;2.706;2024-03-23T09:23:45;101760.62;;;22.88;47.91
85764;BME280;76207;39.772;2.706;2024-03-23T09:26:11;101759.08;;;22.99;47.87
85764;BME280;76207;39.772;2.706;2024-03-23T09:28:37;101763.98;;;23.20;47.73
85764;BME280;76207;39.772;2.706;2024-03-23T09:31:07;101768.91;;;23.34;48.22
85764;BME280;76207;39.772;2.706;2024-03-23T09:33:36;101775.96;;;23.39;47.40
85764;BME280;76207;39.772;2.706;2024-03-23T09:36:05;101782.08;;;23.38;47.35
85764;BME280;76207;39.772;2.706;2024-03-23T09:38:31;101787.97;;;23.36;46.71
85764;BME280;76207;39.772;2.706;2024-03-23T09:40:57;101796.92;;;23.38;47.72
85764;BME280;76207;39.772;2.706;2024-03-23T09:43:23;101801.84;;;23.41;48.37
85764;BME280;76207;39.772;2.706;2024-03-23T09:45:49;101808.50;;;23.41;48.84
85764;BME280;76207;39.772;2.706;2024-03-23T09:48:15;101813.80;;;23.35;49.17
85764;BME280;76207;39.772;2.706;2024-03-23T09:50:43;101818.64;;;23.31;49.32
85764;BME280;76207;39.772;2.706;2024-03-23T09:53:13;101820.30;;;23.36;49.08
85764;BME280;76207;39.772;2.706;2024-03-23T09:55:40;101819.02;;;23.44;48.67
85764;BME280;76207;39.772;2.706;2024-03-23T09:58:06;101820.11;;;23.46;48.89
85764;BME280;76207;39.772;2.706;2024-03-23T10:00:35;101815.91;;;23.46;49.64
85764;BME280;76207;39.772;2.706;2024-03-23T10:03:01;101815.16;;;23.43;49.34
85764;BME280;76207;39.772;2.706;2024-03-23T10:05:29;101811.38;;;23.47;49.75
85764;BME280;76207;39.772;2.706;2024-03-23T10:07:54;101808.13;;;23.49;49.01
85764;BME280;76207;39.772;2.706;2024-03-23T10:10:20;101805.46;;;23.49;48.32
85764;BME280;76207;39.772;2.706;2024-03-23T10:12:49;101804.11;;;23.50;48.01
85764;BME280;76207;39.772;2.706;2024-03-23T10:15:24;101806.42;;;23.55;47.49
85764;BME280;76207;39.772;2.706;2024-03-23T10:17:49;101802.14;;;23.60;46.37
85764;BME280;76207;39.772;2.706;2024-03-23T10:20:23;101802.70;;;23.62;46.49
85764;BME280;76207;39.772;2.706;2024-03-23T10:22:51;101801.80;;;23.70;46.32
85764;BME280;76207;39.772;2.706;2024-03-23T10:25:18;101796.20;;;23.70;46.08
85764;BME280;76207;39.772;2.706;2024-03-23T10:27:58;101794.56;;;23.77;47.07
85764;BME280;76207;39.772;2.706;2024-03-23T10:30:25;101796.23;;;23.83;47.04
85764;BME280;76207;39.772;2.706;2024-03-23T10:33:13;101789.09;;;23.85;46.88
85764;BME280;76207;39.772;2.706;2024-03-23T10:35:40;101782.35;;;23.91;46.39
85764;BME280;76207;39.772;2.706;2024-03-23T10:38:06;101785.29;;;24.02;46.35
85764;BME280;76207;39.772;2.706;2024-03-23T10:40:34;101782.09;;;24.12;46.01
85764;BME280;76207;39.772;2.706;2024-03-23T10:43:04;101778.71;;;24.21;45.86
85764;BME280;76207;39.772;2.706;2024-03-23T10:45:31;101777.62;;;24.33;45.58
85764;BME280;76207;39.772;2.706;2024-03-23T10:47:57;101773.71;;;24.40;45.22
85764;BME280;76207;39.772;2.706;2024-03-23T10:50:23;101771.46;;;24.42;45.12
85764;BME280;76207;39.772;2.706;2024-03-23T10:52:49;101768.48;;;24.42;45.42
85764;BME280;76207;39.772;2.706;2024-03-23T10:55:17;101764.56;;;24.51;45.82
85764;BME280;76207;39.772;2.706;2024-03-23T10:57:57;101763.33;;;24.68;45.99
85764;BME280;76207;39.772;2.706;2024-03-23T11:00:24;101759.98;;;24.82;45.89
85764;BME280;76207;39.772;2.706;2024-03-23T11:02:50;101755.62;;;24.86;45.94
85764;BME280;76207;39.772;2.706;2024-03-23T11:05:29;101756.56;;;24.92;45.58
85764;BME280;76207;39.772;2.706;2024-03-23T11:07:55;101755.54;;;24.95;45.60
85764;BME280;76207;39.772;2.706;2024-03-23T11:10:29;101756.14;;;25.05;45.63
85764;BME280;76207;39.772;2.706;2024-03-23T11:12:58;101751.88;;;25.14;45.20
85764;BME280;76207;39.772;2.706;2024-03-23T11:15:43;101748.44;;;25.23;44.73
85764;BME280;76207;39.772;2.706;2024-03-23T11:18:09;101745.13;;;25.27;44.01
85764;BME280;76207;39.772;2.706;2024-03-23T11:20:35;101744.16;;;25.37;44.01
85764;BME280;76207;39.772;2.706;2024-03-23T11:23:01;101743.36;;;25.48;42.88
85764;BME280;76207;39.772;2.706;2024-03-23T11:25:28;101736.55;;;25.55;41.95
85764;BME280;76207;39.772;2.706;2024-03-23T11:27:55;101729.22;;;25.61;41.45
85764;BME280;76207;39.772;2.706;2024-03-23T11:30:23;101722.84;;;25.76;40.75
85764;BME280;76207;39.772;2.706;2024-03-23T11:32:51;101715.52;;;25.83;40.85
85764;BME280;76207;39.772;2.706;2024-03-23T11:35:38;101715.42;;;26.03;41.54
85764;BME280;76207;39.772;2.706;2024-03-23T11:40:32;101710.46;;;26.48;40.87
85764;BME280;76207;39.772;2.706;2024-03-23T11:43:03;101707.67;;;26.65;40.49
85764;BME280;76207;39.772;2.706;2024-03-23T11:45:42;101704.52;;;26.82;40.27
85764;BME280;76207;39.772;2.706;2024-03-23T11:48:16;101702.58;;;27.03;40.72
85764;BME280;76207;39.772;2.706;2024-03-23T11:50:45;101697.69;;;27.16;40.17
85764;BME280;76207;39.772;2.706;2024-03-23T11:55:49;101683.20;;;27.44;39.30
85764;BME280;76207;39.772;2.706;2024-03-23T11:58:17;101677.75;;;27.41;38.59
85764;BME280;76207;39.772;2.706;2024-03-23T12:00:59;101675.63;;;27.45;38.82
85764;BME280;76207;39.772;2.706;2024-03-23T12:03:26;101671.55;;;27.55;38.80
85764;BME280;76207;39.772;2.706;2024-03-23T12:05:54;101672.56;;;27.66;38.80
85764;BME280;76207;39.772;2.706;2024-03-23T12:08:24;101672.02;;;27.75;38.61
85764;BME280;76207;39.772;2.706;2024-03-23T12:10:52;101668.45;;;27.88;38.40
85764;BME280;76207;39.772;2.706;2024-03-23T12:13:19;101663.33;;;27.94;37.60
85764;BME280;76207;39.772;2.706;2024-03-23T12:15:49;101659.77;;;28.00;38.12
85764;BME280;76207;39.772;2.706;2024-03-23T12:18:16;101658.48;;;28.10;37.45
85764;BME280;76207;39.772;2.706;2024-03-23T12:20:42;101651.17;;;28.21;38.10
85764;BME280;76207;39.772;2.706;2024-03-23T12:23:09;101648.95;;;28.41;37.59
85764;BME280;76207;39.772;2.706;2024-03-23T12:25:37;101640.74;;;28.55;36.44
85764;BME280;76207;39.772;2.706;2024-03-23T12:28:04;101633.67;;;28.59;36.77
85764;BME280;76207;39.772;2.706;2024-03-23T12:30:32;101629.41;;;28.64;36.70
85764;BME280;76207;39.772;2.706;2024-03-23T12:32:58;101629.17;;;28.71;36.58
85764;BME280;76207;39.772;2.706;2024-03-23T12:35:23;101624.20;;;28.74;36.36
85764;BME280;76207;39.772;2.706;2024-03-23T12:37:49;101617.66;;;28.76;36.80
85764;BME280;76207;39.772;2.706;2024-03-23T12:40:14;101615.44;;;28.87;36.89
85764;BME280;76207;39.772;2.706;2024-03-23T12:42:40;101613.23;;;28.98;36.59
85764;BME280;76207;39.772;2.706;2024-03-23T12:45:05;101614.40;;;29.05;36.83
85764;BME280;76207;39.772;2.706;2024-03-23T12:47:31;101614.66;;;29.13;36.67
85764;BME280;76207;39.772;2.706;2024-03-23T12:49:56;101609.58;;;29.11;36.24
85764;BME280;76207;39.772;2.706;2024-03-23T12:52:22;101609.58;;;29.10;36.19
85764;BME280;76207;39.772;2.706;2024-03-23T12:54:49;101605.92;;;29.21;36.01
85764;BME280;76207;39.772;2.706;2024-03-23T12:57:15;101605.30;;;29.30;35.31
85764;BME280;76207;39.772;2.706;2024-03-23T12:59:40;101609.52;;;29.31;35.22
85764;BME280;76207;39.772;2.706;2024-03-23T13:02:06;101609.35;;;29.29;34.64
85764;BME280;76207;39.772;2.706;2024-03-23T13:04:32;101608.39;;;29.22;34.69
85764;BME280;76207;39.772;2.706;2024-03-23T13:06:58;101608.15;;;29.13;34.96
85764;BME280;76207;39.772;2.706;2024-03-23T13:09:23;101611.72;;;29.08;35.18
85764;BME280;76207;39.772;2.706;2024-03-23T13:11:49;101606.12;;;29.04;34.87
85764;BME280;76207;39.772;2.706;2024-03-23T13:14:14;101603.80;;;29.07;35.30
85764;BME280;76207;39.772;2.706;2024-03-23T13:16:42;101601.66;;;29.08;34.90
85764;BME280;76207;39.772;2.706;2024-03-23T13:19:07;101601.92;;;29.01;33.98
85764;BME280;76207;39.772;2.706;2024-03-23T13:21:32;101595.42;;;28.80;33.43
85764;BME280;76207;39.772;2.706;2024-03-23T13:23:58;101593.55;;;28.74;32.85
85764;BME280;76207;39.772;2.706;2024-03-23T13:26:23;101587.64;;;28.82;33.09
85764;BME280;76207;39.772;2.706;2024-03-23T13:28:49;101584.91;;;28.91;32.04
85764;BME280;76207;39.772;2.706;2024-03-23T13:31:14;101580.83;;;28.97;31.65
85764;BME280;76207;39.772;2.706;2024-03-23T13:33:40;101580.30;;;28.96;31.53
85764;BME280;76207;39.772;2.706;2024-03-23T13:36:07;101579.16;;;28.85;31.36
85764;BME280;76207;39.772;2.706;2024-03-23T13:38:33;101573.06;;;28.62;31.54
85764;BME280;76207;39.772;2.706;2024-03-23T13:41:00;101565.70;;;28.39;31.93
85764;BME280;76207;39.772;2.706;2024-03-23T13:43:26;101561.67;;;28.13;31.58
85764;BME280;76207;39.772;2.706;2024-03-23T13:45:54;101566.80;;;27.86;32.40